Time;durP1;ratioP1;P1;durP2;ratioP2;P2;SDS_P1;SDS_P2;PMS_P1;PMS_P2;Temp;Humidity;BMP_temperature;BMP_pressure;BME280_temperature;BME280_humidity;BME280_pressure;Samples;Min_cycle;Max_cycle;Signal;HPM_P1;HPM_P2
2021/01/18 00:01:34;;;;;;;25.45;8.13;;;;;;;-16.37;60.30;100022.13;5012304;28;20490;-72
2021/01/18 00:04:00;;;;;;;17.08;7.43;;;;;;;-16.91;59.92;99936.72;5011957;28;20081;-70
2021/01/18 00:06:26;;;;;;;27.50;8.05;;;;;;;-16.34;60.08;100027.34;5012566;28;20371;-73
2021/01/18 00:08:52;;;;;;;22.08;7.82;;;;;;;-16.33;60.24;100049.59;5012348;28;20037;-71
2021/01/18 00:11:19;;;;;;;19.85;8.07;;;;;;;-16.34;60.17;100036.72;5011732;28;20029;-71
2021/01/18 00:13:46;;;;;;;24.67;8.15;;;;;;;-16.33;60.20;100038.47;5011901;28;20038;-73
2021/01/18 00:16:19;;;;;;;23.25;8.20;;;;;;;-16.35;60.52;100029.84;5012178;28;20034;-70
2021/01/18 00:18:45;;;;;;;21.40;7.63;;;;;;;-16.31;60.63;100037.69;5012311;28;20378;-71
2021/01/18 00:21:10;;;;;;;21.60;7.47;;;;;;;-16.30;60.35;100043.69;5011357;28;20045;-72
2021/01/18 00:23:39;;;;;;;21.92;8.20;;;;;;;-16.32;60.43;100025.72;5011699;28;20030;-70
2021/01/18 00:26:12;;;;;;;25.10;8.70;;;;;;;-16.28;60.63;100067.66;5011525;28;20088;-69
2021/01/18 00:28:39;;;;;;;24.15;7.70;;;;;;;-16.28;60.25;100042.03;5011472;28;20034;-70
2021/01/18 00:31:05;;;;;;;22.27;8.57;;;;;;;-16.29;60.58;100036.88;5010506;28;20092;-72
2021/01/18 00:33:32;;;;;;;21.20;8.93;;;;;;;-16.34;60.39;100040.19;5010359;28;20398;-65
2021/01/18 00:35:58;;;;;;;20.08;7.85;;;;;;;-16.27;60.44;100036.13;5028172;28;20044;-68
2021/01/18 00:38:24;;;;;;;24.85;8.27;;;;;;;-16.52;60.41;100008.81;5028923;28;20050;-67
2021/01/18 00:40:49;;;;;;;23.63;8.00;;;;;;;-16.27;59.98;100051.50;5025372;28;20042;-69
2021/01/18 00:43:15;;;;;;;22.00;8.45;;;;;;;-16.39;60.61;100034.03;5011336;28;20042;-70
2021/01/18 00:45:40;;;;;;;20.35;8.40;;;;;;;-16.25;60.24;100061.78;5011129;28;20038;-69
2021/01/18 00:48:06;;;;;;;20.70;8.43;;;;;;;-16.25;60.27;100066.91;5010691;28;20249;-67
2021/01/18 00:50:32;;;;;;;23.33;7.45;;;;;;;-16.39;60.43;100036.59;5011123;28;20394;-59
2021/01/18 00:52:59;;;;;;;19.60;7.80;;;;;;;-16.23;60.60;100049.88;5011017;28;20058;-70
2021/01/18 00:55:26;;;;;;;21.23;8.10;;;;;;;-16.27;60.55;100042.91;5010843;28;20436;-65
2021/01/18 00:57:52;;;;;;;20.63;7.72;;;;;;;-16.32;60.63;100037.63;5011395;28;20057;-71
2021/01/18 01:00:20;;;;;;;22.33;8.60;;;;;;;-16.22;60.47;100049.06;5010735;28;20177;-71
2021/01/18 01:02:47;;;;;;;20.30;8.55;;;;;;;-16.22;60.45;100065.31;5017052;28;20057;-68
2021/01/18 01:05:15;;;;;;;21.73;8.93;;;;;;;-16.22;60.47;100043.94;5024851;28;20034;-70
2021/01/18 01:07:46;;;;;;;26.55;9.02;;;;;;;-16.22;60.44;100047.38;5012760;28;20485;-71
2021/01/18 01:10:20;;;;;;;23.08;9.05;;;;;;;-16.21;60.74;100048.22;5010670;28;20049;-69
2021/01/18 01:12:46;;;;;;;;;;;;;;;-16.13;60.68;100046.78;5011605;28;20041;-70
2021/01/18 01:15:13;;;;;;;25.17;7.28;;;;;;;-16.13;60.05;100044.22;5011115;28;20427;-69
2021/01/18 01:17:41;;;;;;;20.58;8.18;;;;;;;-16.20;59.93;100043.16;5010394;28;20046;-68
2021/01/18 01:20:08;;;;;;;22.10;8.55;;;;;;;-16.21;60.22;100040.53;5010395;28;20048;-70
2021/01/18 01:22:34;;;;;;;23.02;8.75;;;;;;;-16.25;60.20;100033.59;5011231;28;20103;-66
2021/01/18 01:24:59;;;;;;;24.00;9.35;;;;;;;-16.41;60.40;100020.28;5010911;28;20405;-71
2021/01/18 01:27:25;;;;;;;24.65;8.48;;;;;;;-16.31;60.30;100045.41;5010651;28;20060;-71
2021/01/18 01:29:51;;;;;;;23.67;8.10;;;;;;;-16.53;60.28;99999.41;5010183;28;20033;-71
2021/01/18 01:32:16;;;;;;;28.60;9.48;;;;;;;-16.33;60.08;100036.78;5010909;28;20030;-70
2021/01/18 01:34:41;;;;;;;24.02;8.48;;;;;;;-17.02;60.13;99920.19;5010631;28;20045;-72
2021/01/18 01:37:07;;;;;;;25.92;9.07;;;;;;;-16.45;60.05;100044.97;5010180;28;20033;-68
2021/01/18 01:39:32;;;;;;;27.00;8.80;;;;;;;-16.41;60.42;100056.16;5010173;28;20053;-72
2021/01/18 01:41:59;;;;;;;23.30;8.50;;;;;;;-16.43;60.09;100056.94;5010394;28;20041;-71
2021/01/18 01:44:24;;;;;;;21.13;9.70;;;;;;;-16.45;60.12;100051.75;5010555;28;20402;-71
2021/01/18 01:46:50;;;;;;;21.13;8.93;;;;;;;-16.47;60.12;100050.84;5009774;28;20034;-71
2021/01/18 01:49:16;;;;;;;29.05;9.35;;;;;;;-16.61;60.08;100030.78;5010443;28;20034;-70
2021/01/18 01:51:42;;;;;;;28.25;9.65;;;;;;;-16.52;59.87;100065.22;5010538;28;20049;-69
2021/01/18 01:54:08;;;;;;;28.50;10.10;;;;;;;-16.55;60.01;100040.34;5010581;28;20120;-72
2021/01/18 01:56:34;;;;;;;24.17;9.63;;;;;;;-16.57;60.33;100038.56;5010349;28;20117;-70
2021/01/18 01:59:00;;;;;;;25.58;10.57;;;;;;;-16.63;60.40;100049.47;5010155;28;20038;-70
2021/01/18 02:01:26;;;;;;;30.88;10.60;;;;;;;-16.78;60.55;100011.41;5010170;28;20041;-71
2021/01/18 02:03:51;;;;;;;30.00;10.73;;;;;;;-16.65;59.98;100041.72;5010613;28;20485;-70
2021/01/18 02:06:18;;;;;;;25.27;10.00;;;;;;;-16.89;60.48;99982.88;5009851;28;20037;-71
2021/01/18 02:08:44;;;;;;;28.80;9.55;;;;;;;-16.81;60.63;100016.44;5009631;28;20034;-69
2021/01/18 02:11:10;;;;;;;28.38;10.82;;;;;;;-16.61;60.53;100029.91;5010339;28;20026;-71
2021/01/18 02:13:44;;;;;;;25.52;9.50;;;;;;;-16.61;60.56;100035.91;5010542;28;20045;-58
2021/01/18 02:16:42;;;;;;;18.67;8.65;;;;;;;-16.59;60.56;100038.50;5009827;28;20033;-68
2021/01/18 02:19:16;;;;;;;22.88;8.93;;;;;;;-16.60;60.58;100045.34;5009643;28;20164;-68
2021/01/18 02:22:20;;;;;;;28.55;8.60;;;;;;;-16.57;60.25;100048.81;5009939;28;20038;-68
2021/01/18 02:24:48;;;;;;;22.85;9.25;;;;;;;-16.60;60.31;100052.13;5018377;28;20045;-69
2021/01/18 02:27:33;;;;;;;23.25;9.63;;;;;;;-16.60;60.08;100045.34;5009819;28;20037;-70
2021/01/18 02:30:13;;;;;;;22.02;8.35;;;;;;;-16.60;60.20;100053.03;5009707;28;20030;-66
2021/01/18 02:33:13;;;;;;;26.80;9.02;;;;;;;-16.61;60.05;100053.84;5009541;28;20030;-67
2021/01/18 02:36:07;;;;;;;23.52;9.43;;;;;;;-16.61;60.12;100063.22;5009673;28;20465;-68
2021/01/18 02:39:08;;;;;;;28.80;9.85;;;;;;;-16.60;59.81;100062.38;5010107;28;20053;-68
2021/01/18 02:41:36;;;;;;;28.98;10.02;;;;;;;-16.61;60.13;100053.84;5007601;28;20480;-68
2021/01/18 02:44:07;;;;;;;27.67;9.82;;;;;;;-16.61;60.16;100070.91;5009578;28;20492;-67
2021/01/18 02:46:35;;;;;;;34.88;10.65;;;;;;;-16.69;60.06;100050.13;5009956;28;20085;-68
2021/01/18 02:49:03;;;;;;;28.52;10.10;;;;;;;-16.68;60.07;100046.75;5009386;28;20452;-69
2021/01/18 02:51:32;;;;;;;29.50;10.95;;;;;;;-16.72;59.72;100038.94;5009776;28;20108;-67
2021/01/18 02:54:01;;;;;;;29.17;10.50;;;;;;;-16.62;59.97;100062.34;5011784;28;20030;-68
2021/01/18 02:56:30;;;;;;;29.67;9.70;;;;;;;-16.62;59.66;100072.59;5013172;28;20493;-67
2021/01/18 02:58:57;;;;;;;26.15;9.93;;;;;;;-16.61;59.94;100084.59;5013475;28;20041;-71
2021/01/18 03:01:54;;;;;;;27.45;9.68;;;;;;;-16.60;59.46;100083.78;5013690;28;20541;-65
2021/01/18 03:04:28;;;;;;;22.25;9.68;;;;;;;-16.57;59.55;100092.38;5013922;28;20041;-69
2021/01/18 03:07:03;;;;;;;27.98;10.25;;;;;;;-16.42;59.96;100094.56;5014596;28;20045;-70
2021/01/18 03:09:39;;;;;;;28.80;10.27;;;;;;;-16.26;60.15;100106.19;5013802;28;20040;-70
2021/01/18 03:12:10;;;;;;;26.30;9.68;;;;;;;-16.10;59.79;100111.00;5013090;28;20530;-71
2021/01/18 03:14:46;;;;;;;30.13;11.25;;;;;;;-15.97;59.35;100129.34;5013086;28;20057;-65
2021/01/18 03:17:17;;;;;;;32.80;10.90;;;;;;;-15.81;59.33;100116.13;5013529;28;20100;-70
2021/01/18 03:19:44;;;;;;;30.13;11.02;;;;;;;-15.85;59.25;100103.16;5013309;28;20379;-68
2021/01/18 03:22:21;;;;;;;37.45;12.30;;;;;;;-15.78;59.28;100098.25;5012786;28;20080;-62
2021/01/18 03:24:47;;;;;;;29.58;11.20;;;;;;;-15.48;58.82;100130.81;5012436;28;20063;-67
2021/01/18 03:27:13;;;;;;;28.95;11.27;;;;;;;-15.47;59.22;100139.38;5012940;28;20428;-70
2021/01/18 03:29:39;;;;;;;32.92;10.57;;;;;;;-15.66;58.77;100096.91;5013047;28;20030;-70
2021/01/18 03:32:06;;;;;;;32.42;11.27;;;;;;;-15.91;59.01;100050.88;5012573;28;20033;-71
2021/01/18 03:34:32;;;;;;;26.35;10.40;;;;;;;-15.33;59.01;100137.22;5012221;28;20032;-70
2021/01/18 03:36:58;;;;;;;32.67;10.95;;;;;;;-15.34;59.05;100138.06;5020409;28;20025;-71
2021/01/18 03:39:23;;;;;;;34.38;10.88;;;;;;;-15.36;58.77;100147.41;5031500;28;20048;-70
2021/01/18 03:41:49;;;;;;;34.08;11.68;;;;;;;-15.45;59.02;100128.31;5031224;28;20494;-71
2021/01/18 03:44:14;;;;;;;32.80;11.27;;;;;;;-15.53;59.02;100132.38;5031566;28;20143;-69
2021/01/18 03:46:44;;;;;;;44.22;13.50;;;;;;;-15.67;59.08;100133.63;5031480;28;20034;-70
2021/01/18 03:49:10;;;;;;;33.33;11.30;;;;;;;-15.70;59.29;100115.56;5032549;28;20128;-69
2021/01/18 03:51:35;;;;;;;38.58;11.80;;;;;;;-15.78;59.39;100105.97;5031714;28;20127;-70
2021/01/18 03:54:00;;;;;;;35.58;12.52;;;;;;;-15.82;59.48;100093.88;5031312;28;20121;-69
2021/01/18 03:56:26;;;;;;;33.70;11.48;;;;;;;-15.78;59.78;100110.25;5031890;28;20064;-69
2021/01/18 03:58:51;;;;;;;33.90;11.82;;;;;;;-15.75;60.06;100095.78;5032352;28;20029;-70
2021/01/18 04:01:17;;;;;;;30.92;11.55;;;;;;;-15.70;59.63;100116.47;5031728;28;20037;-68
2021/01/18 04:03:42;;;;;;;30.30;11.00;;;;;;;-15.63;59.75;100109.84;5031061;28;20572;-61
2021/01/18 04:06:08;;;;;;;35.17;11.95;;;;;;;-15.82;60.05;100069.88;5031714;28;20077;-69
2021/01/18 04:08:33;;;;;;;32.63;10.77;;;;;;;-15.49;59.51;100112.81;5032419;28;20037;-67
2021/01/18 04:10:59;;;;;;;33.63;11.38;;;;;;;-15.64;59.30;100085.84;5030677;28;20025;-70
2021/01/18 04:13:24;;;;;;;35.55;11.73;;;;;;;-15.36;59.38;100125.16;5031888;28;20116;-68
2021/01/18 04:15:50;;;;;;;31.88;11.30;;;;;;;-15.30;59.30;100102.25;5031312;28;20033;-68
2021/01/18 04:18:15;;;;;;;34.22;11.20;;;;;;;-15.43;58.71;100051.34;5031353;28;20025;-69
2021/01/18 04:20:41;;;;;;;35.22;11.20;;;;;;;-15.26;59.05;100069.78;5031779;28;20040;-70
2021/01/18 04:23:06;;;;;;;34.60;12.82;;;;;;;-15.25;58.88;100056.13;5031079;28;20045;-70
2021/01/18 04:25:32;;;;;;;29.00;11.98;;;;;;;-15.33;58.98;100057.63;5031191;28;20114;-70
2021/01/18 04:28:02;;;;;;;37.70;12.63;;;;;;;-15.49;58.89;100031.50;5031051;28;20091;-70
2021/01/18 04:30:34;;;;;;;35.95;12.13;;;;;;;-15.28;58.80;100081.72;5029746;28;20037;-69
2021/01/18 04:33:05;;;;;;;29.75;11.23;;;;;;;-15.30;58.90;100057.72;5031421;28;20029;-70
2021/01/18 04:35:32;;;;;;;30.05;11.40;;;;;;;-15.29;58.46;100080.00;5030981;28;20040;-68
2021/01/18 04:37:59;;;;;;;27.50;11.60;;;;;;;-15.29;58.78;100056.88;5030594;28;20099;-69
2021/01/18 04:40:26;;;;;;;30.35;11.75;;;;;;;-15.31;58.74;100055.97;5031406;28;20057;-68
2021/01/18 04:42:53;;;;;;;25.10;11.32;;;;;;;-15.34;58.81;100051.59;5030545;28;20045;-68
2021/01/18 04:45:21;;;;;;;31.27;11.02;;;;;;;-15.34;58.80;100053.31;5030608;28;20042;-69
2021/01/18 04:47:48;;;;;;;33.40;11.73;;;;;;;-15.43;58.81;100061.63;5030952;28;20033;-68
2021/01/18 04:50:19;;;;;;;29.00;11.00;;;;;;;-15.49;58.63;100052.03;5030786;28;20468;-71
2021/01/18 04:52:44;;;;;;;28.52;11.25;;;;;;;-15.42;58.77;100065.09;5030680;28;20116;-70
2021/01/18 04:55:22;;;;;;;29.52;11.80;;;;;;;-15.45;58.83;100061.56;5030797;28;20557;-69
2021/01/18 04:58:02;;;;;;;29.55;11.55;;;;;;;-15.58;58.86;100036.38;5030936;28;20040;-62
2021/01/18 05:00:39;;;;;;;31.15;11.43;;;;;;;-15.41;58.80;100054.84;5030411;28;20053;-71
2021/01/18 05:03:06;;;;;;;32.17;12.85;;;;;;;-15.37;58.54;100048.09;5030218;28;20124;-70
2021/01/18 05:05:56;;;;;;;30.70;12.82;;;;;;;-16.10;58.58;99923.78;5032583;28;20041;-71
2021/01/18 05:08:46;;;;;;;26.65;12.68;;;;;;;-15.25;58.78;100047.56;5031138;28;20121;-71
2021/01/18 05:11:14;;;;;;;29.65;11.50;;;;;;;-15.45;58.48;100004.22;5030195;28;20569;-67
2021/01/18 05:13:40;;;;;;;25.98;11.13;;;;;;;-15.21;58.86;100021.13;5030441;28;20040;-69
2021/01/18 05:16:07;;;;;;;31.48;12.55;;;;;;;-15.04;58.42;100040.44;5030256;28;20126;-68
2021/01/18 05:18:34;;;;;;;24.15;10.50;;;;;;;-15.07;58.19;100049.75;5030109;28;20039;-69
2021/01/18 05:21:09;;;;;;;30.55;12.85;;;;;;;-14.97;58.08;100025.19;5030091;28;20037;-68
2021/01/18 05:23:42;;;;;;;26.95;12.07;;;;;;;-14.92;58.09;100039.91;5030648;28;20163;-71
2021/01/18 05:26:27;;;;;;;35.05;13.00;;;;;;;-14.88;57.68;100057.13;5030215;28;20040;-68
2021/01/18 05:28:54;;;;;;;33.08;12.27;;;;;;;-14.84;57.96;100046.94;5029669;28;20116;-70
2021/01/18 05:31:25;;;;;;;32.20;12.00;;;;;;;-14.88;58.16;100039.16;5030149;28;20124;-69
2021/01/18 05:33:51;;;;;;;33.05;13.10;;;;;;;-15.57;57.95;99930.31;5030573;28;20033;-71
2021/01/18 05:36:52;;;;;;;27.70;11.70;;;;;;;-15.07;57.76;100034.34;5030820;28;20038;-69
2021/01/18 05:39:23;;;;;;;31.98;12.80;;;;;;;-15.04;58.36;100042.13;5029506;28;20433;-63
2021/01/18 05:41:51;;;;;;;31.48;12.73;;;;;;;-15.12;58.44;100036.78;5030338;28;20111;-68
2021/01/18 05:44:18;;;;;;;27.88;11.35;;;;;;;-15.18;58.39;100052.91;5030990;28;20069;-70
2021/01/18 05:46:46;;;;;;;30.05;11.73;;;;;;;-15.25;58.94;100045.84;5030673;28;20164;-69
2021/01/18 05:49:16;;;;;;;33.03;13.02;;;;;;;-15.28;58.94;100042.34;5029712;28;20091;-71
2021/01/18 05:51:48;;;;;;;30.27;12.63;;;;;;;-15.34;58.79;100046.47;5029907;28;20036;-70
2021/01/18 05:54:13;;;;;;;30.15;12.80;;;;;;;-15.50;58.84;100040.03;5030803;28;20026;-70
2021/01/18 05:56:44;;;;;;;36.15;12.23;;;;;;;-15.41;58.67;100061.69;5029927;28;20044;-68
2021/01/18 05:59:24;;;;;;;31.77;12.55;;;;;;;-15.37;58.93;100063.50;5029296;28;20115;-70
2021/01/18 06:01:51;;;;;;;25.50;11.07;;;;;;;-15.37;59.36;100051.53;5029441;28;20404;-62
2021/01/18 06:04:29;;;;;;;30.38;13.25;;;;;;;-15.76;59.02;99996.53;5029857;28;20037;-70
2021/01/18 06:07:04;;;;;;;31.63;11.95;;;;;;;-15.36;59.07;100048.13;5029862;28;20029;-68
2021/01/18 06:09:48;;;;;;;30.65;11.40;;;;;;;-15.32;59.31;100049.94;5029791;28;20037;-71
2021/01/18 06:12:20;;;;;;;38.28;12.98;;;;;;;-15.26;59.31;100053.53;5029764;28;20116;-70
2021/01/18 06:15:06;;;;;;;29.63;11.63;;;;;;;-15.43;59.22;100010.28;5029873;28;20489;-69
2021/01/18 06:17:35;;;;;;;29.77;12.15;;;;;;;-15.12;59.06;100059.06;5028687;28;20064;-70
2021/01/18 06:20:01;;;;;;;31.38;12.35;;;;;;;-15.00;59.11;100064.50;5029201;28;20037;-69
2021/01/18 06:22:28;;;;;;;28.35;12.45;;;;;;;-14.91;59.07;100077.63;5029041;28;20033;-69
2021/01/18 06:24:57;;;;;;;24.17;12.13;;;;;;;-15.42;58.57;99962.38;5029484;28;20049;-71
2021/01/18 06:27:34;;;;;;;28.33;12.68;;;;;;;-14.67;58.74;100076.47;5029484;28;20208;-69
2021/01/18 06:30:00;;;;;;;27.63;12.15;;;;;;;-14.54;58.49;100099.91;5033081;28;20048;-69
2021/01/18 06:32:31;;;;;;;32.42;12.82;;;;;;;-14.43;58.14;100065.06;5032695;28;20045;-71
2021/01/18 06:35:01;;;;;;;31.88;13.25;;;;;;;-14.31;58.25;100055.06;5033091;28;20453;-73
2021/01/18 06:37:30;;;;;;;29.30;12.57;;;;;;;-14.20;57.84;100057.03;5033239;28;20107;-72
2021/01/18 06:39:57;;;;;;;33.88;13.63;;;;;;;-13.90;57.61;100084.31;5032317;28;20428;-73
2021/01/18 06:42:23;;;;;;;35.25;13.75;;;;;;;-13.95;57.48;100050.75;5033054;28;20443;-71
2021/01/18 06:44:50;;;;;;;33.92;14.13;;;;;;;-13.54;56.77;100080.78;5033171;28;20049;-72
2021/01/18 06:47:30;;;;;;;29.75;13.80;;;;;;;-13.24;56.25;100079.69;5033078;28;20033;-69
2021/01/18 06:49:58;;;;;;;31.42;13.65;;;;;;;-12.99;56.39;100072.44;5033019;28;20038;-66
2021/01/18 06:52:35;;;;;;;30.90;13.68;;;;;;;-12.63;55.16;100062.75;5033380;28;20040;-62
2021/01/18 06:55:10;;;;;;;33.55;13.85;;;;;;;-12.03;54.47;100081.81;5032894;28;20061;-65
2021/01/18 06:58:14;;;;;;;37.30;15.38;;;;;;;-11.37;53.42;100078.38;5032935;28;20112;-66
2021/01/18 07:00:40;;;;;;;47.90;15.75;;;;;;;-10.72;52.28;100088.59;5035901;28;20041;-71
2021/01/18 07:03:32;;;;;;;35.05;14.68;;;;;;;-10.02;51.00;100073.63;5025171;28;20392;-72
2021/01/18 07:06:08;;;;;;;39.13;15.38;;;;;;;-9.35;49.75;100066.28;5021648;28;20048;-72
2021/01/18 07:08:40;;;;;;;47.00;17.52;;;;;;;-8.88;48.21;100073.38;5029127;28;20034;-73
2021/01/18 07:11:10;;;;;;;39.58;17.05;;;;;;;-8.27;47.70;100063.91;5024200;28;20079;-69
2021/01/18 07:13:36;;;;;;;36.72;17.23;;;;;;;-7.40;47.37;100070.72;5021221;28;20026;-72
2021/01/18 07:16:07;;;;;;;38.88;17.25;;;;;;;-6.39;44.98;100085.84;5020201;28;20037;-70
2021/01/18 07:18:37;;;;;;;42.47;18.80;;;;;;;-5.31;43.33;100077.88;5023065;28;20449;-71
2021/01/18 07:21:03;;;;;;;47.53;18.77;;;;;;;-4.28;41.72;100057.38;5022672;28;20040;-71
2021/01/18 07:23:30;;;;;;;41.97;19.48;;;;;;;-3.27;41.09;100070.44;5019715;28;20053;-75
2021/01/18 07:26:09;;;;;;;48.53;21.45;;;;;;;-2.59;39.22;100066.41;5025743;28;20041;-73
2021/01/18 07:28:35;;;;;;;50.42;21.85;;;;;;;-2.08;39.81;100059.94;5032984;28;20057;-71
2021/01/18 07:31:02;;;;;;;46.70;21.52;;;;;;;-1.38;38.20;100071.28;5032699;28;20040;-73
2021/01/18 07:33:27;;;;;;;49.13;21.73;;;;;;;-0.73;37.01;100055.44;5025061;28;20037;-64
2021/01/18 07:35:53;;;;;;;51.78;22.70;;;;;;;-0.74;35.50;99951.16;5026110;28;20077;-61
2021/01/18 07:38:21;;;;;;;50.60;23.75;;;;;;;0.01;35.37;100056.63;5023302;28;20036;-66
2021/01/18 07:41:05;;;;;;;54.65;24.13;;;;;;;-0.18;33.53;100058.09;5031105;28;20037;-66
2021/01/18 07:43:35;;;;;;;50.75;23.50;;;;;;;-0.90;35.97;100051.53;5031117;28;20037;-65
2021/01/18 07:46:25;;;;;;;53.30;23.65;;;;;;;-1.97;35.71;100053.56;5014812;28;20034;-68
2021/01/18 07:48:55;;;;;;;51.08;23.83;;;;;;;-3.03;36.97;100062.06;5032060;28;20041;-69
2021/01/18 07:51:32;;;;;;;57.67;24.88;;;;;;;-3.96;37.87;100055.97;5031943;28;20035;-67
2021/01/18 07:53:57;;;;;;;;;;;;;;;-4.45;38.36;100055.03;5026201;28;20481;-63
2021/01/18 07:56:33;;;;;;;56.25;22.63;;;;;;;-5.33;39.92;100060.50;5031783;28;19923;-64
2021/01/18 07:59:04;;;;;;;50.90;22.15;;;;;;;-6.77;41.35;99974.09;5031637;28;20509;-66
2021/01/18 08:01:31;;;;;;;52.30;22.95;;;;;;;-7.09;43.01;100074.06;5030877;28;20497;-63
2021/01/18 08:04:18;;;;;;;50.30;23.20;;;;;;;-7.70;42.14;100065.59;5030391;28;20029;-66
2021/01/18 08:07:07;;;;;;;49.17;22.05;;;;;;;-8.12;42.91;100063.03;5014178;28;20059;-65
2021/01/18 08:09:34;;;;;;;47.35;21.27;;;;;;;-8.39;45.77;100054.38;5027344;28;20034;-64
2021/01/18 08:12:27;;;;;;;47.67;21.30;;;;;;;-8.59;44.82;100051.81;5030144;28;20037;-63
2021/01/18 08:14:53;;;;;;;44.63;20.38;;;;;;;-8.85;46.44;100060.41;5021108;28;20033;-59
2021/01/18 08:17:18;;;;;;;54.92;20.92;;;;;;;-9.15;46.70;100062.06;5030817;28;20037;-69
2021/01/18 08:20:09;;;;;;;45.55;20.63;;;;;;;-9.27;45.82;100062.00;5029979;28;20366;-65
2021/01/18 08:22:36;;;;;;;46.55;21.17;;;;;;;-9.26;46.85;100068.91;5031238;28;20037;-73
2021/01/18 08:25:03;;;;;;;53.80;23.35;;;;;;;-9.17;46.74;100061.16;5038659;28;20048;-72
2021/01/18 08:27:39;;;;;;;45.70;21.63;;;;;;;-8.86;46.76;100055.19;5028605;28;20409;-79
2021/01/18 08:30:16;;;;;;;47.00;20.58;;;;;;;-8.32;45.53;100052.66;5024884;28;20099;-68
2021/01/18 08:32:51;;;;;;;50.53;23.15;;;;;;;-7.90;45.12;100062.16;5030306;28;20139;-67
2021/01/18 08:35:21;;;;;;;52.15;22.98;;;;;;;-7.36;43.76;100062.03;5029866;28;20037;-70
2021/01/18 08:37:59;;;;;;;46.08;21.35;;;;;;;-6.99;42.45;100066.22;5030107;28;20049;-69
2021/01/18 08:40:42;;;;;;;48.47;22.55;;;;;;;-6.81;41.82;100079.16;5030016;28;20575;-68
2021/01/18 08:43:08;;;;;;;51.47;23.83;;;;;;;-6.82;42.63;100071.34;5030591;28;20409;-73
2021/01/18 08:45:37;;;;;;;64.13;24.92;;;;;;;-6.89;42.91;100070.53;5029079;28;20037;-80
2021/01/18 08:48:12;;;;;;;52.95;23.02;;;;;;;-7.07;42.44;100051.50;5025220;28;20045;-68
2021/01/18 08:50:54;;;;;;;51.85;23.20;;;;;;;-7.06;42.71;100068.84;5028983;28;20042;-67
2021/01/18 08:53:23;;;;;;;45.78;23.00;;;;;;;-7.44;42.86;99986.66;5029762;28;20033;-69
2021/01/18 08:55:54;;;;;;;45.70;20.85;;;;;;;-6.89;42.81;100054.03;5030331;28;20040;-72
2021/01/18 08:58:42;;;;;;;50.83;21.10;;;;;;;-6.89;42.21;100041.00;5030605;28;20499;-68
2021/01/18 09:01:14;;;;;;;53.30;23.75;;;;;;;-7.17;42.98;100023.81;5029309;28;20116;-65
2021/01/18 09:03:40;;;;;;;63.20;25.73;;;;;;;-7.52;43.59;100012.69;5026821;28;20116;-71
2021/01/18 09:06:06;;;;;;;56.58;24.40;;;;;;;-7.66;44.06;100019.66;5029614;28;20106;-68
2021/01/18 09:08:31;;;;;;;56.90;24.42;;;;;;;-8.54;44.24;99909.03;5029094;28;20029;-70
2021/01/18 09:11:00;;;;;;;62.72;24.88;;;;;;;-8.26;44.48;100021.47;5029140;28;20397;-71
2021/01/18 09:13:28;;;;;;;54.95;25.20;;;;;;;-8.69;45.66;100026.69;5029584;28;20064;-69
2021/01/18 09:15:55;;;;;;;73.25;25.45;;;;;;;-9.14;46.86;100021.41;5028805;28;20112;-75
2021/01/18 09:18:22;;;;;;;72.47;24.13;;;;;;;-9.47;47.43;100012.66;5029264;28;20500;-73
2021/01/18 09:20:49;;;;;;;62.80;23.67;;;;;;;-9.24;47.71;100051.63;5028917;28;20025;-81
2021/01/18 09:23:15;;;;;;;62.78;21.42;;;;;;;-9.11;47.57;100040.44;5029526;28;20059;-63
2021/01/18 09:25:41;;;;;;;43.85;16.92;;;;;;;-9.01;47.43;100033.56;5029472;28;20084;-71
2021/01/18 09:28:09;;;;;;;58.38;16.95;;;;;;;-8.95;47.38;100033.56;5029359;28;20485;-75
2021/01/18 09:30:39;;;;;;;47.03;15.57;;;;;;;-8.87;47.65;100030.09;5026619;28;20029;-66
2021/01/18 09:33:07;;;;;;;38.80;15.60;;;;;;;-8.70;47.01;100022.34;5029034;28;20029;-69
2021/01/18 09:35:43;;;;;;;39.55;15.57;;;;;;;-8.53;46.93;100020.66;5008359;28;20117;-66
2021/01/18 09:38:11;;;;;;;38.90;14.57;;;;;;;-8.46;46.57;100020.59;5024119;28;20029;-69
2021/01/18 09:40:39;;;;;;;38.00;15.23;;;;;;;-9.03;46.69;99930.63;5028682;28;20670;-63
2021/01/18 09:43:06;;;;;;;38.70;13.80;;;;;;;-8.56;46.75;100036.22;5028888;28;20034;-66
2021/01/18 09:45:33;;;;;;;43.05;16.35;;;;;;;-8.58;46.85;100001.59;5029265;28;20044;-64
2021/01/18 09:48:08;;;;;;;39.30;15.27;;;;;;;-8.47;46.35;100024.06;5028596;28;20033;-65
2021/01/18 09:50:36;;;;;;;37.97;15.38;;;;;;;-8.45;46.83;99998.97;5028960;28;20033;-60
2021/01/18 09:53:09;;;;;;;47.00;17.98;;;;;;;-8.49;46.45;100005.06;5029088;28;20098;-62
2021/01/18 09:55:38;;;;;;;41.63;16.40;;;;;;;-8.58;46.81;100001.59;5028911;28;20034;-62
2021/01/18 09:58:12;;;;;;;37.85;16.27;;;;;;;-8.84;46.88;99973.91;5011178;28;20029;-61
2021/01/18 10:00:38;;;;;;;51.53;20.60;;;;;;;-8.72;47.01;100009.38;5028312;28;20036;-53
2021/01/18 10:03:04;;;;;;;59.45;22.88;;;;;;;-8.79;47.23;100010.25;5029823;28;20037;-69
2021/01/18 10:05:34;;;;;;;57.85;22.63;;;;;;;-8.89;47.14;100011.09;5032857;28;20425;-68
2021/01/18 10:08:04;;;;;;;53.22;22.33;;;;;;;-8.88;47.02;100020.59;5028209;28;20421;-71
2021/01/18 10:10:43;;;;;;;57.95;22.58;;;;;;;-8.94;47.38;100022.31;5020665;28;20038;-74
2021/01/18 10:13:13;;;;;;;61.33;24.95;;;;;;;-8.99;47.59;100034.44;5033126;28;20045;-68
2021/01/18 10:15:38;;;;;;;54.55;24.23;;;;;;;-9.19;47.85;100008.41;5032873;28;20240;-76
2021/01/18 10:18:04;;;;;;;60.92;25.40;;;;;;;-9.15;48.12;100041.31;5033278;28;20029;-68
2021/01/18 10:20:30;;;;;;;61.63;25.05;;;;;;;-9.29;48.02;100035.19;5028694;28;20034;-68
2021/01/18 10:22:57;;;;;;;56.28;26.15;;;;;;;-9.30;48.30;100023.09;5024038;28;20029;-64
2021/01/18 10:25:29;;;;;;;61.10;27.52;;;;;;;-9.35;48.15;100048.97;5025261;28;20046;-67
2021/01/18 10:27:57;;;;;;;60.22;27.92;;;;;;;-9.62;48.72;100035.03;5032367;28;20049;-68
2021/01/18 10:30:27;;;;;;;64.95;27.50;;;;;;;-9.67;49.22;100052.28;5031428;28;20052;-70
2021/01/18 10:32:55;;;;;;;69.65;27.00;;;;;;;-9.76;49.57;100037.56;5015232;28;20112;-69
2021/01/18 10:35:29;;;;;;;62.88;28.00;;;;;;;-9.84;49.63;100034.91;5033056;28;20525;-70
2021/01/18 10:38:16;;;;;;;59.88;27.20;;;;;;;-9.85;49.29;100040.09;5029482;28;20043;-71
2021/01/18 10:40:46;;;;;;;58.03;25.02;;;;;;;-9.93;49.92;100039.16;5032386;28;20057;-65
2021/01/18 10:43:12;;;;;;;66.57;26.90;;;;;;;-10.00;49.82;100030.50;5032761;28;20136;-67
2021/01/18 10:45:40;;;;;;;65.07;27.02;;;;;;;-10.07;49.90;100037.38;5032360;28;20044;-69
2021/01/18 10:48:05;;;;;;;62.53;26.88;;;;;;;-10.18;50.17;100028.63;5032121;28;20497;-70
2021/01/18 10:50:32;;;;;;;67.70;27.08;;;;;;;-10.49;50.20;99977.53;5032567;28;20026;-69
2021/01/18 10:53:09;;;;;;;62.22;28.55;;;;;;;-10.41;50.22;100006.94;5028175;28;20033;-64
2021/01/18 10:55:35;;;;;;;59.53;25.75;;;;;;;-10.46;50.48;100018.09;5028617;28;20073;-73
2021/01/18 10:58:01;;;;;;;62.70;27.42;;;;;;;-10.40;50.91;100025.91;5015544;28;20033;-70
2021/01/18 11:00:28;;;;;;;63.47;26.45;;;;;;;-10.73;50.79;99973.03;5032544;28;20041;-71
2021/01/18 11:03:02;;;;;;;60.42;27.38;;;;;;;-10.40;50.63;100039.72;5032406;28;20041;-70
2021/01/18 11:05:36;;;;;;;62.50;27.50;;;;;;;-10.53;50.64;100010.31;5027593;28;20045;-67
2021/01/18 11:08:05;;;;;;;65.83;27.27;;;;;;;-10.36;50.88;100029.38;5016365;28;20599;-75
2021/01/18 11:10:36;;;;;;;65.97;26.10;;;;;;;-10.32;50.92;100025.94;5032457;28;20504;-73
2021/01/18 11:13:09;;;;;;;66.30;27.33;;;;;;;-10.30;50.80;100014.75;5032003;28;20625;-72
2021/01/18 11:15:41;;;;;;;59.50;26.95;;;;;;;-10.43;50.82;99994.84;5031307;28;20594;-74
2021/01/18 11:18:09;;;;;;;55.58;25.83;;;;;;;-10.25;50.75;100015.66;5016479;28;20508;-69
2021/01/18 11:20:35;;;;;;;57.78;26.25;;;;;;;-10.21;50.79;100028.63;5032305;28;20025;-72
2021/01/18 11:23:01;;;;;;;58.58;26.70;;;;;;;-10.19;50.84;100017.44;5031493;28;20188;-66